createdAt,value
2018-11-27T00:01:00.979Z,2.40
2018-11-27T00:02:34.922Z,2.40
2018-11-27T00:04:08.870Z,2.30
2018-11-27T00:05:42.878Z,2.20
2018-11-27T00:07:16.811Z,2.10
2018-11-27T00:08:57.537Z,2.20
2018-11-27T00:10:32.850Z,2.30
2018-11-27T00:12:06.883Z,2.40
2018-11-27T00:13:40.839Z,2.30
2018-11-27T00:15:14.851Z,2.30
2018-11-27T00:16:48.838Z,2.40
2018-11-27T00:18:22.812Z,2.30
2018-11-27T00:19:57.212Z,2.20
2018-11-27T00:21:31.181Z,2.30
2018-11-27T00:23:05.182Z,2.30
2018-11-27T00:24:39.151Z,2.30
2018-11-27T00:26:13.176Z,2.40
2018-11-27T00:27:47.150Z,2.30
2018-11-27T00:29:21.109Z,2.20
2018-11-27T00:30:55.074Z,2.20
2018-11-27T00:32:29.130Z,2.20
2018-11-27T00:34:03.103Z,2.30
2018-11-27T00:35:43.746Z,2.40
2018-11-27T00:37:17.733Z,2.40
2018-11-27T00:38:51.750Z,2.40
2018-11-27T00:40:25.685Z,2.50
2018-11-27T00:41:59.746Z,2.50
2018-11-27T00:43:39.354Z,2.40
2018-11-27T00:45:17.474Z,2.40
2018-11-27T00:46:51.470Z,2.30
2018-11-27T00:48:25.430Z,2.30
2018-11-27T00:49:59.402Z,2.30
2018-11-27T00:51:33.421Z,2.40
2018-11-27T00:53:07.365Z,2.30
2018-11-27T00:54:41.333Z,2.30
2018-11-27T00:56:15.253Z,2.40
2018-11-27T00:57:51.458Z,2.40
2018-11-27T00:59:25.426Z,2.40
2018-11-27T01:00:59.365Z,2.40
2018-11-27T01:02:33.310Z,2.40
2018-11-27T01:04:07.385Z,2.40
2018-11-27T01:05:41.482Z,2.40
2018-11-27T01:07:15.410Z,2.40
2018-11-27T01:08:49.346Z,2.20
2018-11-27T01:10:27.145Z,2.30
2018-11-27T01:12:01.158Z,2.30
2018-11-27T01:13:35.189Z,2.30
2018-11-27T01:15:10.732Z,2.30
2018-11-27T01:16:44.708Z,2.40
2018-11-27T01:18:18.681Z,2.40
2018-11-27T01:19:52.761Z,2.40
2018-11-27T01:21:26.686Z,2.40
2018-11-27T01:23:00.649Z,2.30
2018-11-27T01:24:34.590Z,2.30
2018-11-27T01:26:08.597Z,2.20
2018-11-27T01:27:43.172Z,2.30
2018-11-27T01:29:17.138Z,2.30
2018-11-27T01:30:51.166Z,2.30
2018-11-27T01:32:25.118Z,2.30
2018-11-27T01:33:59.082Z,2.20
2018-11-27T01:35:33.131Z,2.20
2018-11-27T01:37:07.154Z,2.10
2018-11-27T01:38:41.090Z,2.20
2018-11-27T01:40:19.223Z,2.10
2018-11-27T01:41:53.183Z,2.10
2018-11-27T01:43:27.808Z,2.10
2018-11-27T01:45:01.239Z,2.10
2018-11-27T01:46:35.189Z,2.00
2018-11-27T01:48:09.214Z,2.00
2018-11-27T01:49:43.170Z,2.00
2018-11-27T01:51:17.114Z,2.00
2018-11-27T01:52:51.118Z,2.00
2018-11-27T01:54:25.134Z,2.10
2018-11-27T01:55:59.091Z,2.10
2018-11-27T01:57:33.046Z,2.20
2018-11-27T01:59:06.997Z,2.10
2018-11-27T02:00:41.002Z,2.20
2018-11-27T02:02:14.906Z,2.00
2018-11-27T02:03:48.846Z,2.00
2018-11-27T02:05:23.425Z,2.20
2018-11-27T02:06:57.350Z,2.20
2018-11-27T02:08:31.289Z,2.10
2018-11-27T02:10:08.922Z,2.00
2018-11-27T02:11:42.949Z,2.10
2018-11-27T02:13:16.930Z,2.00
2018-11-27T02:14:50.880Z,2.00
2018-11-27T02:16:24.867Z,1.90
2018-11-27T02:17:58.896Z,2.00
2018-11-27T02:19:32.838Z,1.90
2018-11-27T02:21:07.138Z,1.90
2018-11-27T02:22:41.310Z,2.00
2018-11-27T02:24:15.329Z,1.90
2018-11-27T02:25:49.250Z,1.90
2018-11-27T02:27:23.198Z,1.90
2018-11-27T02:28:57.219Z,2.00
2018-11-27T02:30:31.235Z,1.90
2018-11-27T02:32:05.180Z,1.90
2018-11-27T02:33:39.115Z,1.90
2018-11-27T02:35:14.997Z,1.90
2018-11-27T02:36:49.042Z,1.90
2018-11-27T02:38:23.020Z,1.90
2018-11-27T02:39:56.929Z,1.90
2018-11-27T02:41:30.895Z,1.90
2018-11-27T02:43:05.026Z,1.80
2018-11-27T02:44:38.966Z,1.90
2018-11-27T02:46:12.899Z,1.80
2018-11-27T02:47:47.515Z,1.80
2018-11-27T02:49:21.563Z,1.80
2018-11-27T02:50:55.490Z,1.70
2018-11-27T02:52:30.054Z,1.70
2018-11-27T02:54:04.058Z,1.70
2018-11-27T02:55:38.469Z,1.80
2018-11-27T02:57:12.397Z,1.70
2018-11-27T02:58:46.314Z,1.70
2018-11-27T03:00:22.412Z,1.80
2018-11-27T03:01:56.381Z,1.80
2018-11-27T03:03:30.339Z,1.80
2018-11-27T03:05:04.282Z,1.80
2018-11-27T03:06:38.211Z,1.80
2018-11-27T03:08:12.545Z,1.90
2018-11-27T03:09:46.476Z,1.90
2018-11-27T03:11:20.429Z,1.90
2018-11-27T03:12:54.373Z,2.10
2018-11-27T03:14:28.342Z,2.20
2018-11-27T03:16:02.304Z,2.20
2018-11-27T03:17:36.249Z,2.10
2018-11-27T03:19:10.189Z,2.10
2018-11-27T03:20:44.229Z,2.00
2018-11-27T03:22:18.163Z,2.00
2018-11-27T03:23:52.098Z,2.10
2018-11-27T03:25:26.493Z,2.10
2018-11-27T03:27:00.442Z,2.10
2018-11-27T03:28:34.386Z,2.00
2018-11-27T03:30:16.503Z,2.00
2018-11-27T03:31:50.535Z,2.00
2018-11-27T03:33:24.452Z,2.10
2018-11-27T03:34:58.393Z,2.10
2018-11-27T03:36:32.350Z,2.00
2018-11-27T03:38:06.533Z,2.00
2018-11-27T03:39:40.562Z,2.00
2018-11-27T03:41:14.514Z,1.90
2018-11-27T03:42:48.511Z,2.00
2018-11-27T03:44:23.343Z,2.10
2018-11-27T03:45:57.295Z,2.10
2018-11-27T03:47:31.299Z,2.00
2018-11-27T03:49:05.292Z,2.00
2018-11-27T03:50:39.305Z,2.10
2018-11-27T03:52:13.276Z,2.10
2018-11-27T03:53:47.274Z,2.00
2018-11-27T03:55:21.193Z,1.90
2018-11-27T03:56:55.202Z,1.90
2018-11-27T03:58:29.148Z,2.00
2018-11-27T04:00:03.210Z,2.00
2018-11-27T04:01:37.223Z,2.00
2018-11-27T04:03:12.653Z,1.90
2018-11-27T04:04:46.601Z,1.90
2018-11-27T04:06:20.566Z,2.00
2018-11-27T04:07:54.491Z,2.10
2018-11-27T04:09:28.550Z,2.10
2018-11-27T04:11:02.534Z,2.10
2018-11-27T04:12:36.482Z,2.10
2018-11-27T04:14:10.419Z,2.00
2018-11-27T04:15:44.414Z,2.00
2018-11-27T04:17:20.983Z,2.00
2018-11-27T04:18:55.107Z,2.00
2018-11-27T04:20:29.687Z,2.00
2018-11-27T04:22:03.900Z,1.90
2018-11-27T04:23:37.862Z,1.90
2018-11-27T04:25:13.005Z,1.90
2018-11-27T04:26:46.945Z,1.80
2018-11-27T04:28:20.874Z,1.80
2018-11-27T04:29:54.831Z,1.90
2018-11-27T04:31:29.187Z,1.80
2018-11-27T04:33:03.121Z,1.80
2018-11-27T04:34:37.084Z,1.80
2018-11-27T04:36:10.980Z,1.80
2018-11-27T04:37:45.407Z,1.80
2018-11-27T04:39:19.327Z,1.80
2018-11-27T04:40:53.286Z,1.80
2018-11-27T04:42:27.231Z,1.80
2018-11-27T04:44:01.242Z,1.80
2018-11-27T04:45:35.210Z,1.70
2018-11-27T04:47:09.139Z,1.60
2018-11-27T04:48:43.137Z,1.60
2018-11-27T04:50:18.609Z,1.60
2018-11-27T04:51:52.570Z,1.60
2018-11-27T04:53:26.553Z,1.70
2018-11-27T04:55:00.887Z,1.70
2018-11-27T04:56:34.935Z,1.70
2018-11-27T04:58:08.869Z,1.70
2018-11-27T04:59:42.822Z,1.60
2018-11-27T05:01:16.830Z,1.70
2018-11-27T05:02:50.755Z,1.60
2018-11-27T05:04:24.668Z,1.70
2018-11-27T05:05:58.629Z,1.60
2018-11-27T05:07:32.606Z,1.70
2018-11-27T05:09:10.274Z,1.70
2018-11-27T05:10:44.189Z,1.70
2018-11-27T05:12:18.127Z,1.60
2018-11-27T05:13:52.131Z,1.60
2018-11-27T05:15:26.875Z,1.70
2018-11-27T05:17:00.849Z,1.70
2018-11-27T05:18:34.843Z,1.60
2018-11-27T05:20:09.954Z,1.60
2018-11-27T05:21:43.910Z,1.60
2018-11-27T05:23:17.942Z,1.50
2018-11-27T05:24:51.919Z,1.50
2018-11-27T05:26:25.860Z,1.50
2018-11-27T05:27:59.770Z,1.50
2018-11-27T05:29:33.761Z,1.50
2018-11-27T05:31:07.717Z,1.50
2018-11-27T05:32:41.650Z,1.50
2018-11-27T05:34:15.581Z,1.60
2018-11-27T05:35:49.558Z,1.60
2018-11-27T05:37:23.554Z,1.40
2018-11-27T05:38:57.498Z,1.40
2018-11-27T05:40:31.410Z,1.30
2018-11-27T05:42:05.590Z,1.40
2018-11-27T05:43:39.913Z,1.40
2018-11-27T05:45:18.008Z,1.40
2018-11-27T05:46:51.937Z,1.40
2018-11-27T05:48:25.885Z,1.40
2018-11-27T05:50:00.137Z,1.40
2018-11-27T05:51:34.086Z,1.30
2018-11-27T05:53:08.005Z,1.40
2018-11-27T05:54:41.929Z,1.30
2018-11-27T05:56:15.911Z,1.30
2018-11-27T05:57:51.469Z,1.30
2018-11-27T05:59:25.390Z,1.30
2018-11-27T06:00:59.429Z,1.30
2018-11-27T06:02:33.379Z,1.30
2018-11-27T06:04:07.301Z,1.20
2018-11-27T06:05:47.594Z,1.20
2018-11-27T06:07:21.580Z,1.20
2018-11-27T06:08:56.970Z,1.20
2018-11-27T06:10:29.879Z,1.20
2018-11-27T06:12:03.811Z,1.20
2018-11-27T06:13:37.749Z,1.10
2018-11-27T06:15:13.662Z,1.10
2018-11-27T06:16:47.682Z,1.20
2018-11-27T06:18:21.670Z,1.10
2018-11-27T06:19:55.665Z,1.10
2018-11-27T06:21:29.608Z,1.10
2018-11-27T06:23:03.544Z,1.00
2018-11-27T06:24:37.497Z,1.00
2018-11-27T06:26:11.533Z,1.10
2018-11-27T06:27:45.937Z,1.00
2018-11-27T06:29:19.899Z,1.00
2018-11-27T06:30:53.874Z,0.90
2018-11-27T06:32:27.881Z,0.90
2018-11-27T06:34:01.842Z,0.90
2018-11-27T06:35:37.577Z,0.90
2018-11-27T06:37:11.490Z,0.80
2018-11-27T06:38:45.478Z,0.80
2018-11-27T06:40:20.716Z,0.80
2018-11-27T06:41:54.674Z,0.70
2018-11-27T06:43:28.620Z,0.70
2018-11-27T06:45:02.655Z,0.60
2018-11-27T06:46:36.614Z,0.70
2018-11-27T06:48:10.665Z,0.60
2018-11-27T06:49:44.661Z,0.60
2018-11-27T06:51:18.685Z,0.60
2018-11-27T06:52:52.679Z,0.60
2018-11-27T06:54:26.642Z,0.60
2018-11-27T06:56:00.617Z,0.60
2018-11-27T06:57:34.689Z,0.50
2018-11-27T06:59:08.721Z,0.50
2018-11-27T07:00:42.673Z,0.50
2018-11-27T07:02:16.649Z,0.60
2018-11-27T07:03:50.705Z,0.60
2018-11-27T07:05:24.743Z,0.60
2018-11-27T07:06:58.817Z,0.60
2018-11-27T07:08:32.769Z,0.50
2018-11-27T07:10:26.982Z,0.60
2018-11-27T07:12:00.970Z,0.60
2018-11-27T07:13:34.960Z,0.50
2018-11-27T07:15:12.002Z,0.40
2018-11-27T07:16:54.550Z,0.30
2018-11-27T07:18:28.518Z,0.30
2018-11-27T07:20:02.498Z,0.30
2018-11-27T07:21:36.614Z,0.40
2018-11-27T07:23:10.618Z,0.60
2018-11-27T07:24:44.577Z,0.60
2018-11-27T07:26:18.576Z,0.60
2018-11-27T07:27:52.858Z,0.50
2018-11-27T07:29:26.803Z,0.50
2018-11-27T07:31:00.818Z,0.50
2018-11-27T07:32:34.829Z,0.50
2018-11-27T07:34:08.857Z,0.40
2018-11-27T07:35:42.811Z,0.40
2018-11-27T07:37:16.804Z,0.50
2018-11-27T07:38:50.849Z,0.40
2018-11-27T07:40:26.359Z,0.50
2018-11-27T07:42:00.342Z,0.50
2018-11-27T07:43:40.937Z,0.40
2018-11-27T07:45:16.782Z,0.50
2018-11-27T07:46:50.756Z,0.40
2018-11-27T07:48:24.758Z,0.50
2018-11-27T07:49:58.757Z,0.50
2018-11-27T07:51:32.807Z,0.50
2018-11-27T07:53:13.331Z,0.50
2018-11-27T07:54:47.277Z,0.50
2018-11-27T07:56:21.246Z,0.50
2018-11-27T07:57:55.814Z,0.50
2018-11-27T07:59:29.737Z,0.50
2018-11-27T08:01:03.663Z,0.50
2018-11-27T08:02:37.594Z,0.40
2018-11-27T08:04:11.594Z,0.30
2018-11-27T08:05:45.546Z,0.40
2018-11-27T08:07:19.494Z,0.40
2018-11-27T08:08:53.477Z,0.40
2018-11-27T08:10:28.596Z,0.50
2018-11-27T08:12:02.537Z,0.40
2018-11-27T08:13:37.368Z,0.40
2018-11-27T08:15:16.560Z,0.40
2018-11-27T08:16:50.579Z,0.30
2018-11-27T08:18:24.525Z,0.20
2018-11-27T08:19:58.472Z,0.20
2018-11-27T08:21:32.423Z,0.20
2018-11-27T08:23:07.586Z,0.30
2018-11-27T08:24:47.874Z,0.20
2018-11-27T08:26:21.812Z,0.10
2018-11-27T08:27:55.772Z,0.20
2018-11-27T08:29:29.782Z,0.10
2018-11-27T08:31:03.721Z,0.10
2018-11-27T08:32:37.671Z,0.00
2018-11-27T08:34:11.585Z,0.00
2018-11-27T08:35:45.605Z,0.00
2018-11-27T08:37:19.570Z,0.00
2018-11-27T08:38:53.541Z,-0.10
2018-11-27T08:40:29.627Z,-0.10
2018-11-27T08:42:10.122Z,-0.10
2018-11-27T08:43:44.046Z,0.00
2018-11-27T08:45:19.046Z,0.00
2018-11-27T08:46:52.959Z,0.00
2018-11-27T08:48:26.974Z,0.10
2018-11-27T08:50:00.927Z,0.10
2018-11-27T08:51:34.879Z,0.10
2018-11-27T08:53:08.805Z,0.00
2018-11-27T08:54:42.834Z,0.10
2018-11-27T08:56:16.776Z,0.10
2018-11-27T08:57:50.970Z,0.10
2018-11-27T08:59:24.902Z,0.10
2018-11-27T09:00:58.882Z,0.30
2018-11-27T09:02:32.848Z,0.30
2018-11-27T09:04:06.755Z,0.30
2018-11-27T09:05:40.703Z,0.30
2018-11-27T09:07:14.669Z,0.30
2018-11-27T09:08:48.655Z,0.30
2018-11-27T09:10:24.902Z,0.40
2018-11-27T09:11:58.842Z,0.40
2018-11-27T09:13:32.885Z,0.40
2018-11-27T09:15:07.834Z,0.40
2018-11-27T09:16:41.862Z,0.40
2018-11-27T09:18:20.166Z,0.40
2018-11-27T09:19:54.111Z,0.40
2018-11-27T09:21:28.069Z,0.40
2018-11-27T09:23:02.063Z,0.40
2018-11-27T09:24:35.977Z,0.50
2018-11-27T09:26:09.993Z,0.50
2018-11-27T09:27:43.934Z,0.60
2018-11-27T09:29:17.926Z,0.60
2018-11-27T09:30:51.877Z,0.60
2018-11-27T09:32:26.795Z,0.70
2018-11-27T09:34:00.730Z,0.60
2018-11-27T09:35:34.763Z,0.60
2018-11-27T09:37:09.395Z,0.50
2018-11-27T09:38:43.378Z,0.50
2018-11-27T09:40:18.734Z,0.60
2018-11-27T09:41:52.717Z,0.60
2018-11-27T09:43:26.638Z,0.60
2018-11-27T09:45:00.567Z,0.60
2018-11-27T09:46:34.662Z,0.60
2018-11-27T09:48:08.659Z,0.70
2018-11-27T09:49:42.582Z,0.60
2018-11-27T09:51:16.546Z,0.60
2018-11-27T09:52:50.504Z,0.50
2018-11-27T09:54:24.533Z,0.40
2018-11-27T09:55:58.479Z,0.40
2018-11-27T09:57:32.419Z,0.30
2018-11-27T09:59:06.446Z,0.30
2018-11-27T10:00:40.450Z,0.40
2018-11-27T10:02:14.415Z,0.30
2018-11-27T10:03:48.361Z,0.20
2018-11-27T10:05:22.299Z,0.30
2018-11-27T10:06:56.290Z,0.20
2018-11-27T10:08:30.207Z,0.30
2018-11-27T10:10:04.666Z,0.40
2018-11-27T10:11:38.678Z,0.40
2018-11-27T10:13:12.615Z,0.40
2018-11-27T10:14:49.423Z,0.30
2018-11-27T10:16:23.359Z,0.30
2018-11-27T10:17:58.466Z,0.40
2018-11-27T10:19:32.414Z,0.50
2018-11-27T10:21:06.445Z,0.60
2018-11-27T10:22:40.415Z,0.60
2018-11-27T10:24:14.427Z,0.60
2018-11-27T10:25:48.374Z,0.80
2018-11-27T10:27:22.338Z,0.80
2018-11-27T10:28:56.326Z,0.90
2018-11-27T10:30:30.366Z,0.90
2018-11-27T10:32:04.321Z,1.00
2018-11-27T10:33:39.265Z,1.00
2018-11-27T10:35:20.664Z,1.00
2018-11-27T10:36:54.652Z,1.00
2018-11-27T10:38:28.626Z,1.00
2018-11-27T10:40:02.745Z,0.80
2018-11-27T10:41:36.809Z,0.80
2018-11-27T10:43:10.813Z,0.90
2018-11-27T10:44:44.829Z,0.90
2018-11-27T10:46:18.798Z,1.00
2018-11-27T10:47:53.862Z,1.00
2018-11-27T10:49:27.865Z,1.10
2018-11-27T10:51:01.777Z,1.10
2018-11-27T10:52:35.672Z,1.20
2018-11-27T10:54:09.629Z,1.20
2018-11-27T10:55:43.616Z,1.20
2018-11-27T10:57:17.559Z,1.30
2018-11-27T10:58:51.503Z,1.20
2018-11-27T11:00:31.418Z,1.20
2018-11-27T11:02:41.929Z,1.20
2018-11-27T11:04:15.849Z,1.20
2018-11-27T11:05:49.831Z,1.30
2018-11-27T11:07:23.787Z,1.30
2018-11-27T11:08:57.762Z,1.20
2018-11-27T11:10:31.818Z,1.20
2018-11-27T11:12:05.899Z,1.50
2018-11-27T11:13:39.850Z,1.60
2018-11-27T11:15:13.824Z,1.70
2018-11-27T11:16:47.786Z,2.00
2018-11-27T11:18:21.713Z,2.20
2018-11-27T11:19:55.637Z,2.30
2018-11-27T11:21:29.633Z,2.60
2018-11-27T11:23:03.604Z,3.00
2018-11-27T11:24:37.554Z,3.30
2018-11-27T11:26:11.546Z,3.50
2018-11-27T11:27:46.578Z,3.40
2018-11-27T11:29:20.524Z,3.30
2018-11-27T11:30:54.465Z,3.30
2018-11-27T11:32:28.406Z,3.10
2018-11-27T11:34:02.379Z,3.20
2018-11-27T11:35:36.315Z,3.20
2018-11-27T11:37:10.278Z,3.40
2018-11-27T11:38:44.211Z,3.40
2018-11-27T11:40:20.302Z,3.40
2018-11-27T11:41:54.222Z,3.50
2018-11-27T11:43:28.209Z,3.60
2018-11-27T11:45:02.137Z,3.60
2018-11-27T11:46:36.147Z,3.70
2018-11-27T11:48:10.093Z,4.00
2018-11-27T11:49:44.048Z,4.30
2018-11-27T11:51:17.978Z,4.40
2018-11-27T11:52:54.482Z,4.50
2018-11-27T11:54:28.429Z,4.20
2018-11-27T11:56:02.342Z,4.10
2018-11-27T11:57:36.313Z,4.30
2018-11-27T11:59:16.869Z,4.40
2018-11-27T12:00:53.221Z,4.30
2018-11-27T12:02:27.167Z,4.00
2018-11-27T12:04:01.140Z,3.90
2018-11-27T12:05:35.534Z,4.10
2018-11-27T12:07:09.486Z,4.20
2018-11-27T12:08:43.415Z,4.10
2018-11-27T12:10:17.730Z,4.10
2018-11-27T12:11:51.818Z,4.20
2018-11-27T12:13:25.784Z,3.80
2018-11-27T12:14:59.758Z,3.70
2018-11-27T12:16:33.686Z,3.50
2018-11-27T12:18:08.642Z,3.70
2018-11-27T12:19:42.635Z,3.80
2018-11-27T12:21:16.565Z,3.80
2018-11-27T12:22:52.398Z,3.70
2018-11-27T12:24:26.435Z,3.90
2018-11-27T12:26:00.399Z,3.80
2018-11-27T12:27:34.380Z,3.90
2018-11-27T12:29:08.326Z,3.70
2018-11-27T12:30:42.325Z,3.60
2018-11-27T12:32:16.258Z,3.70
2018-11-27T12:33:50.346Z,3.40
2018-11-27T12:35:24.733Z,3.40
2018-11-27T12:36:58.674Z,3.20
2018-11-27T12:38:32.631Z,2.90
2018-11-27T12:40:11.025Z,2.70
2018-11-27T12:41:45.020Z,2.50
2018-11-27T12:43:18.998Z,2.30
2018-11-27T12:44:53.085Z,2.20
2018-11-27T12:46:27.077Z,2.20
2018-11-27T12:48:02.327Z,2.30
2018-11-27T12:49:36.390Z,2.20
2018-11-27T12:51:10.859Z,2.30
2018-11-27T12:52:44.557Z,2.40
2018-11-27T12:54:18.595Z,2.40
2018-11-27T12:55:52.667Z,2.30
2018-11-27T12:57:26.684Z,2.20
2018-11-27T12:59:00.651Z,2.00
2018-11-27T13:00:34.735Z,2.00
2018-11-27T13:02:08.732Z,2.10
2018-11-27T13:03:42.731Z,2.10
2018-11-27T13:05:18.256Z,2.10
2018-11-27T13:06:52.291Z,2.20
2018-11-27T13:08:26.355Z,2.20
2018-11-27T13:10:00.337Z,2.10
2018-11-27T13:11:34.331Z,2.00
2018-11-27T13:13:08.378Z,2.00
2018-11-27T13:14:42.438Z,1.90
2018-11-27T13:16:16.447Z,1.80
2018-11-27T13:17:51.470Z,1.70
2018-11-27T13:19:25.420Z,1.70
2018-11-27T13:21:06.145Z,1.50
2018-11-27T13:22:40.408Z,1.40
2018-11-27T13:24:14.404Z,1.50
2018-11-27T13:25:48.361Z,1.60
2018-11-27T13:27:22.441Z,1.60
2018-11-27T13:28:56.482Z,1.70
2018-11-27T13:30:38.527Z,1.80
2018-11-27T13:32:17.965Z,1.80
2018-11-27T13:34:01.462Z,1.70
2018-11-27T13:35:35.494Z,1.60
2018-11-27T13:37:09.459Z,1.50
2018-11-27T13:38:43.556Z,1.60
2018-11-27T13:40:17.546Z,1.60
2018-11-27T13:41:51.620Z,1.80
2018-11-27T13:43:26.890Z,1.80
2018-11-27T13:45:00.952Z,1.80
2018-11-27T13:46:35.026Z,1.80
2018-11-27T13:48:08.967Z,1.90
2018-11-27T13:49:42.986Z,1.90
2018-11-27T13:51:17.117Z,1.90
2018-11-27T13:52:51.086Z,1.70
2018-11-27T13:54:25.299Z,1.70
2018-11-27T13:55:59.318Z,1.60
2018-11-27T13:57:33.362Z,1.50
2018-11-27T13:59:07.353Z,1.50
2018-11-27T14:00:41.332Z,1.60
2018-11-27T14:02:15.382Z,1.60
2018-11-27T14:03:49.496Z,1.70
2018-11-27T14:05:29.967Z,1.70
2018-11-27T14:07:04.073Z,1.60
2018-11-27T14:08:38.097Z,1.60
2018-11-27T14:10:12.703Z,1.60
2018-11-27T14:11:46.700Z,1.60
2018-11-27T14:13:20.784Z,1.70
2018-11-27T14:14:54.866Z,1.70
2018-11-27T14:16:28.866Z,1.50
2018-11-27T14:18:02.900Z,1.50
2018-11-27T14:19:36.974Z,1.50
2018-11-27T14:21:11.155Z,1.40
2018-11-27T14:22:46.552Z,1.50
2018-11-27T14:24:21.002Z,1.40
2018-11-27T14:25:55.035Z,1.40
2018-11-27T14:27:29.319Z,1.40
2018-11-27T14:29:03.515Z,1.30
2018-11-27T14:30:37.561Z,1.30
2018-11-27T14:32:11.649Z,1.40
2018-11-27T14:33:45.776Z,1.30
2018-11-27T14:35:20.648Z,1.30
2018-11-27T14:36:54.632Z,1.30
2018-11-27T14:38:29.337Z,1.20
2018-11-27T14:40:03.619Z,1.20
2018-11-27T14:41:37.694Z,1.10
2018-11-27T14:43:11.678Z,1.00
2018-11-27T14:44:45.681Z,1.00
2018-11-27T14:46:19.675Z,1.00
2018-11-27T14:47:54.891Z,1.00
2018-11-27T14:49:28.868Z,1.00
2018-11-27T14:51:02.822Z,1.00
2018-11-27T14:52:36.792Z,0.80
2018-11-27T14:54:10.846Z,0.80
2018-11-27T14:55:44.827Z,0.70
2018-11-27T14:57:18.801Z,0.70
2018-11-27T14:58:52.787Z,0.70
2018-11-27T15:00:27.344Z,0.70
2018-11-27T15:02:01.315Z,0.60
2018-11-27T15:03:35.286Z,0.60
2018-11-27T15:05:42.094Z,0.60
2018-11-27T15:07:16.030Z,0.60
2018-11-27T15:08:50.062Z,0.50
2018-11-27T15:10:24.061Z,0.60
2018-11-27T15:11:58.107Z,0.50
2018-11-27T15:13:32.087Z,0.30
2018-11-27T15:15:06.999Z,0.30
2018-11-27T15:16:40.953Z,0.30
2018-11-27T15:18:14.961Z,0.30
2018-11-27T15:19:48.997Z,0.30
2018-11-27T15:21:22.964Z,0.10
2018-11-27T15:22:56.951Z,0.00
2018-11-27T15:24:31.026Z,-0.10
2018-11-27T15:26:05.014Z,-0.10
2018-11-27T15:27:38.983Z,-0.20
2018-11-27T15:29:12.954Z,-0.20
2018-11-27T15:30:47.075Z,-0.30
2018-11-27T15:32:21.081Z,-0.20
2018-11-27T15:33:55.038Z,-0.30
2018-11-27T15:35:29.103Z,-0.30
2018-11-27T15:37:03.419Z,-0.30
2018-11-27T15:38:37.367Z,-0.30
2018-11-27T15:40:13.738Z,-0.40
2018-11-27T15:41:47.692Z,-0.50
2018-11-27T15:43:21.715Z,-0.50
2018-11-27T15:44:55.686Z,-0.50
2018-11-27T15:46:29.787Z,-0.50
2018-11-27T15:48:05.154Z,-0.50
2018-11-27T15:49:39.219Z,-0.60
2018-11-27T15:51:13.215Z,-0.60
2018-11-27T15:52:47.273Z,-0.70
2018-11-27T15:54:21.325Z,-0.60
2018-11-27T15:55:55.299Z,-0.70
2018-11-27T15:57:29.278Z,-0.80
2018-11-27T15:59:03.269Z,-0.90
2018-11-27T16:00:37.301Z,-0.90
2018-11-27T16:02:11.282Z,-0.80
2018-11-27T16:03:45.232Z,-0.90
2018-11-27T16:05:19.199Z,-1.00
2018-11-27T16:06:53.262Z,-1.00
2018-11-27T16:08:27.309Z,-1.00
2018-11-27T16:10:01.375Z,-1.10
2018-11-27T16:11:35.517Z,-1.10
2018-11-27T16:13:09.554Z,-1.20
2018-11-27T16:14:43.537Z,-1.20
2018-11-27T16:16:17.507Z,-1.10
2018-11-27T16:17:51.598Z,-1.00
2018-11-27T16:19:25.639Z,-1.00
2018-11-27T16:20:59.689Z,-1.20
2018-11-27T16:22:33.653Z,-1.30
2018-11-27T16:24:07.642Z,-1.30
2018-11-27T16:25:41.625Z,-1.40
2018-11-27T16:27:15.670Z,-1.40
2018-11-27T16:28:50.554Z,-1.50
2018-11-27T16:30:29.667Z,-1.30
2018-11-27T16:32:03.622Z,-1.40
2018-11-27T16:33:37.729Z,-1.50
2018-11-27T16:35:12.522Z,-1.50
2018-11-27T16:36:46.473Z,-1.60
2018-11-27T16:38:20.497Z,-1.50
2018-11-27T16:39:54.643Z,-1.40
2018-11-27T16:41:28.671Z,-1.50
2018-11-27T16:43:03.330Z,-1.50
2018-11-27T16:44:37.254Z,-1.60
2018-11-27T16:46:11.455Z,-1.60
2018-11-27T16:47:45.648Z,-1.50
2018-11-27T16:49:19.599Z,-1.50
2018-11-27T16:50:53.570Z,-1.60
2018-11-27T16:52:27.634Z,-1.50
2018-11-27T16:54:01.625Z,-1.60
2018-11-27T16:55:35.636Z,-1.50
2018-11-27T16:57:09.620Z,-1.60
2018-11-27T16:58:43.777Z,-1.70
2018-11-27T17:00:20.697Z,-1.70
2018-11-27T17:01:55.436Z,-1.70
2018-11-27T17:03:29.385Z,-1.80
2018-11-27T17:05:03.393Z,-1.90
2018-11-27T17:06:37.513Z,-1.90
2018-11-27T17:08:12.270Z,-2.00
2018-11-27T17:09:46.189Z,-1.90
2018-11-27T17:11:20.165Z,-1.90
2018-11-27T17:12:56.356Z,-2.00
2018-11-27T17:14:30.336Z,-2.00
2018-11-27T17:16:04.312Z,-2.00
2018-11-27T17:17:38.314Z,-2.10
2018-11-27T17:19:12.517Z,-2.20
2018-11-27T17:20:46.889Z,-2.30
2018-11-27T17:22:21.154Z,-2.30
2018-11-27T17:23:55.205Z,-2.20
2018-11-27T17:25:29.125Z,-2.30
2018-11-27T17:27:03.109Z,-2.30
2018-11-27T17:28:37.091Z,-2.20
2018-11-27T17:30:16.712Z,-2.10
2018-11-27T17:31:50.709Z,-2.20
2018-11-27T17:33:27.100Z,-2.30
2018-11-27T17:35:01.068Z,-2.30
2018-11-27T17:36:35.119Z,-2.40
2018-11-27T17:38:09.918Z,-2.40
2018-11-27T17:39:43.877Z,-2.40
2018-11-27T17:41:17.918Z,-2.40
2018-11-27T17:42:51.955Z,-2.40
2018-11-27T17:44:25.885Z,-2.40
2018-11-27T17:46:00.009Z,-2.50
2018-11-27T17:47:33.939Z,-2.50
2018-11-27T17:49:07.977Z,-2.50
2018-11-27T17:50:41.929Z,-2.60
2018-11-27T17:52:15.908Z,-2.60
2018-11-27T17:53:49.977Z,-2.60
2018-11-27T17:55:23.982Z,-2.60
2018-11-27T17:56:57.932Z,-2.60
2018-11-27T17:58:32.814Z,-2.60
2018-11-27T18:00:26.779Z,-2.50
2018-11-27T18:02:00.718Z,-2.50
2018-11-27T18:03:34.660Z,-2.60
2018-11-27T18:05:08.649Z,-2.60
2018-11-27T18:06:42.702Z,-2.70
2018-11-27T18:08:16.655Z,-2.80
2018-11-27T18:09:50.813Z,-2.80
2018-11-27T18:11:27.204Z,-2.70
2018-11-27T18:13:01.178Z,-2.80
2018-11-27T18:14:35.466Z,-2.90
2018-11-27T18:16:09.418Z,-2.90
2018-11-27T18:17:43.458Z,-2.90
2018-11-27T18:19:17.527Z,-2.90
2018-11-27T18:20:51.477Z,-2.90
2018-11-27T18:22:25.381Z,-2.90
2018-11-27T18:23:59.429Z,-2.90
2018-11-27T18:25:33.347Z,-2.90
2018-11-27T18:27:07.326Z,-2.80
2018-11-27T18:28:41.553Z,-2.80
2018-11-27T18:30:18.364Z,-2.90
2018-11-27T18:31:52.620Z,-3.00
2018-11-27T18:33:26.759Z,-3.00
2018-11-27T18:35:01.073Z,-3.00
2018-11-27T18:36:35.381Z,-3.00
2018-11-27T18:38:09.363Z,-3.10
2018-11-27T18:39:43.793Z,-3.10
2018-11-27T18:41:17.828Z,-3.00
2018-11-27T18:42:52.481Z,-3.00
2018-11-27T18:44:26.095Z,-3.00
2018-11-27T18:46:00.062Z,-3.00
2018-11-27T18:47:34.012Z,-3.10
2018-11-27T18:49:08.100Z,-3.20
2018-11-27T18:50:42.153Z,-3.20
2018-11-27T18:52:17.986Z,-3.20
2018-11-27T18:53:55.108Z,-3.20
2018-11-27T18:55:29.422Z,-3.30
2018-11-27T18:57:03.380Z,-3.30
2018-11-27T18:58:37.349Z,-3.30
2018-11-27T19:00:23.855Z,-3.30
2018-11-27T19:01:57.906Z,-3.30
2018-11-27T19:03:31.841Z,-3.50
2018-11-27T19:05:06.657Z,-3.50
2018-11-27T19:06:40.630Z,-3.60
2018-11-27T19:08:14.677Z,-3.60
2018-11-27T19:09:55.257Z,-3.60
2018-11-27T19:11:29.349Z,-3.60
2018-11-27T19:13:03.310Z,-3.50
2018-11-27T19:14:37.281Z,-3.40
2018-11-27T19:16:11.203Z,-3.40
2018-11-27T19:17:46.532Z,-3.50
2018-11-27T19:19:20.449Z,-3.60
2018-11-27T19:20:54.460Z,-3.70
2018-11-27T19:22:28.407Z,-3.70
2018-11-27T19:24:02.327Z,-3.80
2018-11-27T19:25:36.273Z,-3.80
2018-11-27T19:27:10.265Z,-3.70
2018-11-27T19:28:44.170Z,-3.70
2018-11-27T19:30:19.352Z,-3.80
2018-11-27T19:31:53.261Z,-3.70
2018-11-27T19:33:27.201Z,-3.80
2018-11-27T19:35:01.133Z,-3.70
2018-11-27T19:36:35.070Z,-3.70
2018-11-27T19:38:11.342Z,-3.80
2018-11-27T19:39:45.335Z,-3.80
2018-11-27T19:41:19.251Z,-3.80
2018-11-27T19:42:53.177Z,-3.90
2018-11-27T19:44:27.078Z,-4.00
2018-11-27T19:46:01.037Z,-3.80
2018-11-27T19:47:35.407Z,-4.00
2018-11-27T19:49:09.341Z,-4.00
2018-11-27T19:50:43.243Z,-4.10
2018-11-27T19:52:17.252Z,-4.00
2018-11-27T19:53:51.142Z,-4.20
2018-11-27T19:55:25.111Z,-4.30
2018-11-27T19:56:59.049Z,-4.30
2018-11-27T19:58:33.014Z,-4.40
2018-11-27T20:00:11.387Z,-4.40
2018-11-27T20:01:45.285Z,-4.50
2018-11-27T20:03:19.205Z,-4.40
2018-11-27T20:04:53.327Z,-4.50
2018-11-27T20:06:27.269Z,-4.50
2018-11-27T20:08:01.182Z,-4.50
2018-11-27T20:09:35.114Z,-4.50
2018-11-27T20:11:09.103Z,-4.40
2018-11-27T20:12:43.051Z,-4.50
2018-11-27T20:14:16.969Z,-4.50
2018-11-27T20:15:50.950Z,-4.50
2018-11-27T20:17:24.870Z,-4.50
2018-11-27T20:18:58.805Z,-4.60
2018-11-27T20:20:32.783Z,-4.70
2018-11-27T20:22:06.909Z,-4.70
2018-11-27T20:23:40.826Z,-4.70
2018-11-27T20:25:16.668Z,-4.60
2018-11-27T20:26:50.599Z,-4.70
2018-11-27T20:28:24.563Z,-4.80
2018-11-27T20:29:58.488Z,-4.80
2018-11-27T20:31:32.565Z,-4.90
2018-11-27T20:33:07.043Z,-4.90
2018-11-27T20:34:41.060Z,-4.90
2018-11-27T20:36:15.063Z,-5.00
2018-11-27T20:37:50.049Z,-5.10
2018-11-27T20:39:24.762Z,-5.10
2018-11-27T20:40:58.763Z,-5.10
2018-11-27T20:42:32.747Z,-5.20
2018-11-27T20:44:06.769Z,-5.10
2018-11-27T20:45:40.853Z,-5.00
2018-11-27T20:47:14.747Z,-5.00